createdAt,value
2019-04-22T10:21:46.312Z,26.77
2019-04-22T10:27:32.471Z,22.55
2019-04-22T10:30:04.232Z,17.62
2019-04-22T10:32:38.096Z,18.33
2019-04-22T10:35:09.245Z,21.10
2019-04-22T10:37:36.534Z,15.08
2019-04-22T10:40:09.872Z,18.10
2019-04-22T10:42:41.309Z,18.02
2019-04-22T10:45:12.239Z,17.82
2019-04-22T10:47:42.362Z,14.68
2019-04-22T10:50:12.294Z,19.00
2019-04-22T10:52:41.546Z,19.23
2019-04-22T10:55:11.677Z,18.12
2019-04-22T10:57:41.036Z,15.50
2019-04-22T11:00:11.388Z,15.63
2019-04-22T11:02:41.539Z,13.83
2019-04-22T11:05:10.540Z,13.90
2019-04-22T11:07:44.044Z,14.55
2019-04-22T11:10:27.378Z,16.00
2019-04-22T11:12:41.440Z,15.97
2019-04-22T11:15:11.762Z,13.68
2019-04-22T11:17:41.822Z,14.03
2019-04-22T11:20:11.473Z,11.00
2019-04-22T11:22:40.695Z,12.35
2019-04-22T11:25:09.906Z,17.73
2019-04-22T11:27:39.120Z,13.58
2019-04-22T11:30:08.065Z,13.90
2019-04-22T11:32:38.201Z,12.18
2019-04-22T11:35:07.832Z,12.78
2019-04-22T11:37:37.029Z,13.28
2019-04-22T11:40:16.592Z,11.18
2019-04-22T11:42:38.419Z,13.18
2019-04-22T11:45:08.939Z,11.22
2019-04-22T11:47:39.253Z,12.10
2019-04-22T11:50:08.295Z,10.32
2019-04-22T11:52:37.355Z,11.53
2019-04-22T11:55:06.708Z,12.25
2019-04-22T11:57:37.032Z,13.95
2019-04-22T12:00:07.425Z,18.98
2019-04-22T12:02:36.685Z,13.10
2019-04-22T12:05:07.966Z,13.00
2019-04-22T12:07:38.913Z,12.95
2019-04-22T12:10:22.117Z,15.13
2019-04-22T12:12:39.708Z,12.88
2019-04-22T12:15:08.822Z,15.00
2019-04-22T12:17:38.171Z,15.58
2019-04-22T12:20:10.598Z,15.70
2019-04-22T12:22:39.238Z,12.73
2019-04-22T12:25:08.229Z,10.88
2019-04-22T12:27:38.886Z,14.23
2019-04-22T12:30:11.089Z,9.55
2019-04-22T12:32:41.195Z,8.83
2019-04-22T12:35:11.556Z,9.70
2019-04-22T12:37:47.987Z,11.22
2019-04-22T12:40:11.166Z,15.15
2019-04-22T12:42:41.618Z,11.90
2019-04-22T12:45:12.055Z,12.60
2019-04-22T12:47:42.142Z,9.88
2019-04-22T12:50:18.648Z,9.98
2019-04-22T12:52:50.562Z,9.93
2019-04-22T12:55:14.239Z,6.62
2019-04-22T12:57:43.177Z,12.63
2019-04-22T13:00:13.589Z,7.55
2019-04-22T13:02:43.129Z,8.03
2019-04-22T13:05:12.425Z,11.28
2019-04-22T13:07:41.837Z,6.87
2019-04-22T13:10:11.034Z,6.20
2019-04-22T13:12:40.033Z,9.83
2019-04-22T13:15:10.048Z,8.30
2019-04-22T13:17:39.870Z,7.95
2019-04-22T13:20:11.410Z,8.15
2019-04-22T13:22:40.896Z,7.65
2019-04-22T13:25:12.418Z,9.38
2019-04-22T13:30:12.305Z,13.60
2019-04-22T13:32:42.812Z,6.37
2019-04-22T13:35:12.840Z,6.53
2019-04-22T13:37:43.286Z,7.10
2019-04-22T13:40:13.208Z,7.30
2019-04-22T13:42:42.773Z,9.65
2019-04-22T13:45:13.851Z,11.90
2019-04-22T13:48:06.357Z,8.38
2019-04-22T13:51:01.000Z,9.20
2019-04-22T13:55:44.984Z,7.92
2019-04-22T13:57:58.442Z,10.32
2019-04-22T14:00:20.803Z,9.07
2019-04-22T14:03:08.827Z,9.85
2019-04-22T14:05:38.417Z,8.05
2019-04-22T14:08:08.705Z,7.95
2019-04-22T14:10:38.621Z,6.90
2019-04-22T14:13:09.961Z,7.05
2019-04-22T14:15:38.329Z,6.20
2019-04-22T14:18:07.419Z,18.82
2019-04-22T14:20:36.785Z,8.88
2019-04-22T14:23:07.923Z,11.15
2019-04-22T14:25:38.627Z,9.60
2019-04-22T14:28:13.858Z,9.90
2019-04-22T14:30:40.124Z,12.75
2019-04-22T14:33:09.879Z,8.55
2019-04-22T14:35:39.852Z,13.20
2019-04-22T14:38:10.155Z,10.68
2019-04-22T14:40:41.447Z,9.85
2019-04-22T14:43:28.900Z,14.90
2019-04-22T14:46:15.182Z,9.63
2019-04-22T14:48:41.946Z,11.48
2019-04-22T14:51:05.270Z,9.47
2019-04-22T14:53:32.153Z,13.32
2019-04-22T14:55:44.357Z,11.15
2019-04-22T14:58:13.473Z,9.90
2019-04-22T15:00:45.723Z,9.38
2019-04-22T15:03:15.626Z,13.23
2019-04-22T15:05:46.170Z,11.38
2019-04-22T15:08:15.212Z,10.13
2019-04-22T15:10:44.196Z,12.60
2019-04-22T15:13:13.533Z,16.05
2019-04-22T15:16:03.020Z,10.70
2019-04-22T15:18:44.055Z,10.65
2019-04-22T15:21:16.577Z,8.23
2019-04-22T15:23:46.662Z,7.28
2019-04-22T15:26:16.713Z,10.45
2019-04-22T15:28:47.150Z,12.18
2019-04-22T15:31:17.464Z,11.30
2019-04-22T15:33:50.219Z,11.70
2019-04-22T15:38:47.421Z,12.03
2019-04-22T15:41:16.717Z,8.75
2019-04-22T15:43:45.824Z,11.60
2019-04-22T15:46:15.965Z,8.00
2019-04-22T15:48:46.316Z,11.88
2019-04-22T15:51:16.330Z,7.42
2019-04-22T15:53:49.563Z,8.23
2019-04-22T15:56:18.815Z,10.13
2019-04-22T15:58:48.027Z,10.55
2019-04-22T16:01:25.577Z,12.05
2019-04-22T16:03:47.769Z,11.22
2019-04-22T16:06:17.738Z,8.73
2019-04-22T16:08:47.899Z,7.62
2019-04-22T16:11:18.092Z,9.98
2019-04-22T16:13:48.363Z,9.85
2019-04-22T16:16:18.582Z,8.35
2019-04-22T16:18:48.581Z,11.68
2019-04-22T16:21:30.183Z,6.95
2019-04-22T16:24:06.558Z,8.35
2019-04-22T16:27:14.131Z,10.15
2019-04-22T16:29:43.590Z,7.87
2019-04-22T16:32:13.656Z,7.37
2019-04-22T16:34:42.581Z,6.10
2019-04-22T16:37:12.574Z,7.45
2019-04-22T16:39:43.667Z,6.42
2019-04-22T16:42:25.895Z,5.90
2019-04-22T16:44:43.547Z,8.13
2019-04-22T16:47:13.356Z,11.28
2019-04-22T16:49:43.684Z,8.15
2019-04-22T16:52:13.972Z,6.53
2019-04-22T16:54:44.492Z,20.80
2019-04-22T16:57:13.395Z,18.32
2019-04-22T16:59:42.778Z,17.87
2019-04-22T17:02:30.625Z,14.65
2019-04-22T17:05:23.206Z,11.60
2019-04-22T17:07:52.276Z,13.13
2019-04-22T17:10:21.854Z,11.22
2019-04-22T17:12:58.316Z,12.25
2019-04-22T17:15:22.591Z,8.08
2019-04-22T17:17:51.877Z,9.03
2019-04-22T17:20:21.000Z,7.65
2019-04-22T17:22:51.458Z,11.05
2019-04-22T17:25:20.615Z,8.15
2019-04-22T17:27:49.782Z,10.20
2019-04-22T17:30:20.100Z,8.33
2019-04-22T17:32:50.260Z,8.05
2019-04-22T17:35:20.017Z,9.45
2019-04-22T17:37:55.250Z,9.40
2019-04-22T17:40:38.662Z,10.90
2019-04-22T17:43:28.421Z,6.62
2019-04-22T17:45:49.317Z,7.72
2019-04-22T17:48:30.619Z,7.47
2019-04-22T17:51:10.624Z,7.60
2019-04-22T17:53:40.364Z,10.48
2019-04-22T17:56:08.588Z,9.15
2019-04-22T17:58:36.027Z,7.05
2019-04-22T18:01:09.195Z,9.88
2019-04-22T18:03:24.517Z,6.65
2019-04-22T18:05:55.434Z,9.20
2019-04-22T18:11:10.331Z,7.30
2019-04-22T18:13:39.441Z,6.20
2019-04-22T18:16:14.520Z,8.40
2019-04-22T18:18:47.338Z,10.23
2019-04-22T18:21:14.733Z,6.28
2019-04-22T18:23:36.303Z,11.80
2019-04-22T18:26:17.124Z,9.35
2019-04-22T18:28:50.855Z,6.85
2019-04-22T18:31:15.884Z,6.83
2019-04-22T18:33:47.881Z,10.23
2019-04-22T18:36:20.804Z,4.80
2019-04-22T18:39:01.206Z,8.43
2019-04-22T18:41:17.830Z,7.83
2019-04-22T18:43:57.074Z,5.50
2019-04-22T18:46:20.939Z,7.72
2019-04-22T18:48:58.436Z,5.53
2019-04-22T18:51:35.224Z,8.15
2019-04-22T18:54:18.390Z,9.05
2019-04-22T18:56:46.633Z,9.93
2019-04-22T18:59:09.500Z,7.50
2019-04-22T19:01:30.090Z,7.55
2019-04-22T19:04:08.983Z,9.20
2019-04-22T19:06:50.262Z,8.85
2019-04-22T19:09:27.586Z,7.92
2019-04-22T19:12:10.340Z,10.78
2019-04-22T19:14:25.326Z,7.08
2019-04-22T19:17:08.248Z,9.25
2019-04-22T19:19:43.792Z,13.60
2019-04-22T19:22:02.222Z,5.62
2019-04-22T19:24:24.514Z,9.25
2019-04-22T19:29:32.453Z,10.75
2019-04-22T19:32:01.921Z,15.23
2019-04-22T19:34:32.182Z,10.25
2019-04-22T19:37:03.634Z,5.65
2019-04-22T19:39:29.820Z,5.97
2019-04-22T19:42:12.528Z,6.75
2019-04-22T19:44:31.501Z,7.60
2019-04-22T19:47:19.565Z,6.10
2019-04-22T19:49:36.611Z,5.75
2019-04-22T19:52:11.322Z,7.08
2019-04-22T19:54:38.993Z,4.80
2019-04-22T19:56:59.075Z,5.35
2019-04-22T19:59:41.071Z,7.03
2019-04-22T20:02:17.813Z,4.25
2019-04-22T20:05:06.446Z,7.62
2019-04-22T20:07:41.777Z,4.78
2019-04-22T20:10:20.776Z,5.83
2019-04-22T20:12:48.665Z,5.75
2019-04-22T20:15:20.019Z,10.95
2019-04-22T20:18:19.289Z,4.55
2019-04-22T20:22:49.317Z,12.13
2019-04-22T20:25:10.926Z,6.05
2019-04-22T20:27:54.661Z,7.03
2019-04-22T20:30:29.583Z,4.47
2019-04-22T20:32:51.128Z,5.85
2019-04-22T20:35:29.485Z,5.45
2019-04-22T20:37:56.854Z,5.00
2019-04-22T20:40:30.660Z,6.78
2019-04-22T20:43:04.137Z,5.70
2019-04-22T20:45:30.663Z,5.67
2019-04-22T20:47:51.283Z,11.25
2019-04-22T20:50:29.126Z,6.85
2019-04-22T20:53:08.610Z,4.78
2019-04-22T20:55:25.705Z,6.03
2019-04-22T20:58:05.138Z,7.28
2019-04-22T21:00:25.277Z,5.15
2019-04-22T21:02:54.236Z,5.28
2019-04-22T21:05:27.313Z,4.40
2019-04-22T21:08:06.393Z,8.45
2019-04-22T21:10:31.424Z,7.17
2019-04-22T21:13:00.210Z,7.50
2019-04-22T21:15:44.207Z,10.18
2019-04-22T21:18:08.463Z,7.72
2019-04-22T21:20:43.311Z,6.00
2019-04-22T21:23:11.064Z,5.45
2019-04-22T21:25:33.850Z,5.15
2019-04-22T21:28:14.454Z,8.65
2019-04-22T21:30:45.367Z,6.90
2019-04-22T21:33:13.873Z,5.35
2019-04-22T21:35:59.529Z,7.47
2019-04-22T21:38:25.244Z,9.73
2019-04-22T21:40:52.213Z,8.33
2019-04-22T21:43:21.507Z,6.72
2019-04-22T21:45:52.285Z,9.28
2019-04-22T21:48:28.128Z,6.47
2019-04-22T21:50:54.608Z,6.30
2019-04-22T21:53:32.956Z,6.40
2019-04-22T21:56:01.368Z,11.55
2019-04-22T21:58:26.971Z,7.72
2019-04-22T22:01:14.573Z,12.40
2019-04-22T22:03:42.900Z,8.98
2019-04-22T22:06:01.442Z,7.10
2019-04-22T22:08:49.010Z,8.00
2019-04-22T22:11:16.879Z,7.83
2019-04-22T22:13:39.220Z,7.08
2019-04-22T22:16:12.812Z,7.30
2019-04-22T22:18:35.029Z,9.38
2019-04-22T22:21:33.821Z,6.05
2019-04-22T22:23:45.641Z,7.20
2019-04-22T22:26:09.826Z,8.33
2019-04-22T22:29:06.899Z,10.15
2019-04-22T22:31:26.597Z,7.58
2019-04-22T22:33:47.958Z,8.43
2019-04-22T22:36:13.656Z,7.12
2019-04-22T22:38:42.670Z,6.12
2019-04-22T22:40:58.173Z,7.87
2019-04-22T22:43:34.964Z,7.42
2019-04-22T22:46:13.451Z,7.75
2019-04-22T22:49:14.582Z,8.85
2019-04-22T22:51:45.228Z,6.40
2019-04-22T22:54:12.157Z,7.40
2019-04-22T22:56:48.609Z,7.72
2019-04-22T22:59:09.325Z,7.70
2019-04-22T23:01:39.566Z,12.70
2019-04-22T23:04:16.304Z,7.10
2019-04-22T23:06:44.346Z,7.45
2019-04-22T23:09:12.964Z,5.45
2019-04-22T23:11:57.533Z,8.15
2019-04-22T23:14:14.580Z,7.28
2019-04-22T23:16:33.676Z,8.98
2019-04-22T23:19:06.380Z,7.80
2019-04-22T23:21:39.733Z,5.35
2019-04-22T23:24:41.255Z,8.10
2019-04-22T23:27:04.372Z,5.85
2019-04-22T23:29:47.553Z,5.08
2019-04-22T23:32:21.164Z,6.30
2019-04-22T23:35:10.115Z,7.25
2019-04-22T23:37:35.313Z,6.20
2019-04-22T23:40:17.455Z,8.68
2019-04-22T23:42:41.098Z,5.35
2019-04-22T23:45:10.766Z,7.72
2019-04-22T23:47:35.609Z,8.00
2019-04-22T23:50:14.197Z,5.30
2019-04-22T23:53:10.000Z,5.97
2019-04-22T23:55:29.836Z,6.20
